Accueil
METAR-TAF:

METAR-TAF

Aéroports :

Dole, France

Aéroport de Dole-Jura

latitude: 47-02-34N, longitude: 005-26-06E, altitude: 196 m

Observation

Le bulletin a été fait il y a 16 minutes, à 01:30 UTC
Vent 3 kt de est/nord-est
Température 8°C
Humidité 100%
Pression 1024 hPa
Visibilité 10 km ou plus
pas de nuages en-dessous de 1500 mètres et pas de cumulonimbus.

METAR: LFGJ 170130Z AUTO 06003KT CAVOK 08/08 Q1024

Heure: 03:46 (01:46 UTC)

Prévision

Le bulletin a été fait il y a 11 heures et 46 minutes, à 14:00 UTC
Prévision valable du 16 à 15 UTC au 16 à 24 UTC
Vent 12 kt de sud/sud-ouest
Visibilité 10 km ou plus
pas de nuages en-dessous de 1500 mètres et pas de cumulonimbus.
Evoluant progressivement
du 16 à 15 UTC au 16 à 18 UTC
Vent 3 kt de direction variable

TAF: LFGJ 161400Z 1615/1624 20012KT CAVOK BECMG 1615/1618 VRB03KT

Observations et prévisions météorologiques de plus de 4000 aéroports (messages METAR et TAF).

Les stations disponibles sont représentées par des disques jaunes et rouges sur la carte.

Passer la souris dessus pour voir le nom de la station.

Cliquer dessus pour voir les observations et prévisions météorologiques.

Pour changer de carte: cliquez sur les boutons verts avec une croix noire pour zoomer, sur le bouton vert avec un tiret pour effectuer un zoom arrière, ou sur les flèches vertes pour les cartes adjacentes.


METAR-TAF: